createdAt,value
2018-12-12T00:01:04.521Z,1.70
2018-12-12T00:03:32.722Z,1.70
2018-12-12T00:06:00.289Z,1.70
2018-12-12T00:08:27.861Z,1.70
2018-12-12T00:10:56.250Z,1.70
2018-12-12T00:13:24.604Z,1.70
2018-12-12T00:15:52.189Z,1.70
2018-12-12T00:18:20.592Z,1.70
2018-12-12T00:20:48.184Z,1.70
2018-12-12T00:23:15.792Z,1.70
2018-12-12T00:25:43.356Z,1.70
2018-12-12T00:28:11.694Z,1.80
2018-12-12T00:30:40.275Z,1.80
2018-12-12T00:33:07.853Z,1.80
2018-12-12T00:35:35.422Z,2.00
2018-12-12T00:38:03.045Z,2.00
2018-12-12T00:40:30.623Z,2.00
2018-12-12T00:42:58.521Z,2.00
2018-12-12T00:45:27.507Z,2.00
2018-12-12T00:47:55.082Z,2.00
2018-12-12T00:50:23.453Z,2.10
2018-12-12T00:52:51.025Z,2.10
2018-12-12T00:55:18.641Z,2.20
2018-12-12T00:57:46.220Z,2.20
2018-12-12T01:00:13.786Z,2.20
2018-12-12T01:02:41.454Z,2.20
2018-12-12T01:05:09.026Z,2.20
2018-12-12T01:07:38.206Z,2.10
2018-12-12T01:10:06.056Z,2.10
2018-12-12T01:12:33.630Z,2.10
2018-12-12T01:15:01.233Z,2.10
2018-12-12T01:17:29.564Z,2.30
2018-12-12T01:19:57.893Z,2.20
2018-12-12T01:22:25.465Z,2.30
2018-12-12T01:24:53.043Z,2.30
2018-12-12T01:27:23.090Z,2.30
2018-12-12T01:29:50.670Z,2.20
2018-12-12T01:32:18.272Z,2.20
2018-12-12T01:34:46.390Z,2.30
2018-12-12T01:37:13.927Z,2.30
2018-12-12T01:39:41.530Z,2.20
2018-12-12T01:42:10.440Z,2.20
2018-12-12T01:44:38.791Z,2.10
2018-12-12T01:47:06.366Z,2.10
2018-12-12T01:49:33.986Z,2.00
2018-12-12T01:52:01.556Z,2.00
2018-12-12T01:54:29.359Z,1.90
2018-12-12T01:56:56.976Z,1.90
2018-12-12T01:59:24.558Z,1.90
2018-12-12T02:01:52.218Z,1.90
2018-12-12T02:04:19.833Z,1.80
2018-12-12T02:06:47.863Z,1.80
2018-12-12T02:09:15.458Z,2.00
2018-12-12T02:11:43.794Z,2.00
2018-12-12T02:14:11.408Z,2.00
2018-12-12T02:16:38.988Z,2.00
2018-12-12T02:19:06.746Z,2.00
2018-12-12T02:21:34.905Z,1.90
2018-12-12T02:24:03.277Z,1.90
2018-12-12T02:26:31.230Z,1.80
2018-12-12T02:28:58.806Z,1.80
2018-12-12T02:31:28.187Z,1.80
2018-12-12T02:33:55.784Z,1.80
2018-12-12T02:36:24.139Z,1.70
2018-12-12T02:38:52.104Z,1.70
2018-12-12T02:41:19.675Z,1.70
2018-12-12T02:43:47.248Z,1.70
2018-12-12T02:46:15.661Z,1.70
2018-12-12T02:48:43.982Z,1.60
2018-12-12T02:51:11.964Z,1.60
2018-12-12T02:53:39.547Z,1.60
2018-12-12T02:56:07.461Z,1.70
2018-12-12T02:58:35.345Z,1.70
2018-12-12T03:01:02.922Z,1.70
2018-12-12T03:03:30.917Z,1.70
2018-12-12T03:05:58.953Z,1.70
2018-12-12T03:08:26.528Z,1.70
2018-12-12T03:10:54.106Z,1.60
2018-12-12T03:30:59.232Z,1.90
2018-12-12T03:33:26.799Z,1.90
2018-12-12T03:35:54.370Z,1.90
2018-12-12T03:38:21.965Z,1.90
2018-12-12T03:40:50.301Z,1.90
2018-12-12T03:43:18.360Z,1.90
2018-12-12T03:45:46.018Z,2.00
2018-12-12T03:48:14.478Z,2.00
2018-12-12T03:50:42.413Z,2.00
2018-12-12T03:53:09.977Z,2.00
2018-12-12T03:55:38.349Z,2.00
2018-12-12T03:58:05.919Z,2.00
2018-12-12T04:00:33.492Z,2.00
2018-12-12T04:03:01.864Z,2.00
2018-12-12T04:05:30.205Z,2.00
2018-12-12T04:07:57.830Z,2.00
2018-12-12T04:10:25.418Z,2.00
2018-12-12T04:12:52.988Z,2.00
2018-12-12T04:15:20.655Z,2.00
2018-12-12T04:17:48.234Z,2.00
2018-12-12T04:20:16.209Z,2.00
2018-12-12T04:22:43.796Z,2.00
2018-12-12T04:25:12.173Z,2.10
2018-12-12T04:27:39.736Z,2.10
2018-12-12T04:30:08.085Z,1.90
2018-12-12T04:32:35.695Z,1.90
2018-12-12T04:35:03.274Z,1.80
2018-12-12T04:37:30.851Z,1.80
2018-12-12T04:39:58.455Z,1.80
2018-12-12T04:42:26.808Z,1.80
2018-12-12T04:44:55.182Z,1.80
2018-12-12T04:47:22.758Z,1.80
2018-12-12T04:49:50.339Z,1.90
2018-12-12T04:52:17.944Z,1.90
2018-12-12T04:54:45.525Z,1.80
2018-12-12T04:57:13.503Z,1.70
2018-12-12T04:59:41.071Z,1.70
2018-12-12T05:02:08.653Z,1.60
2018-12-12T05:04:36.301Z,1.60
2018-12-12T05:07:03.884Z,1.70
2018-12-12T05:09:32.519Z,1.70
2018-12-12T05:12:00.094Z,1.60
2018-12-12T05:14:27.675Z,1.60
2018-12-12T05:16:55.290Z,1.60
2018-12-12T05:19:22.961Z,1.70
2018-12-12T05:21:51.065Z,1.70
2018-12-12T05:24:19.116Z,1.60
2018-12-12T05:26:46.697Z,1.60
2018-12-12T05:29:14.289Z,1.50
2018-12-12T05:31:50.819Z,1.50
2018-12-12T05:34:18.715Z,1.50
2018-12-12T05:36:47.080Z,1.50
2018-12-12T05:39:14.643Z,1.50
2018-12-12T05:41:43.217Z,1.60
2018-12-12T05:44:11.861Z,1.60
2018-12-12T05:46:41.977Z,1.50
2018-12-12T05:49:11.931Z,1.50
2018-12-12T05:51:39.538Z,1.50
2018-12-12T05:54:07.888Z,1.40
2018-12-12T05:56:36.163Z,1.40
2018-12-12T05:59:03.755Z,1.40
2018-12-12T06:01:32.143Z,1.50
2018-12-12T06:03:59.740Z,1.50
2018-12-12T06:06:27.334Z,1.50
2018-12-12T06:08:56.234Z,1.40
2018-12-12T06:11:23.820Z,1.40
2018-12-12T06:13:51.404Z,1.30
2018-12-12T06:16:19.025Z,1.30
2018-12-12T06:18:46.638Z,1.20
2018-12-12T06:21:14.219Z,1.20
2018-12-12T06:23:41.843Z,1.10
2018-12-12T06:26:09.426Z,1.10
2018-12-12T06:28:37.016Z,1.10
2018-12-12T06:31:04.657Z,1.10
2018-12-12T06:33:32.245Z,1.00
2018-12-12T06:35:59.815Z,1.00
2018-12-12T06:38:27.780Z,1.00
2018-12-12T06:40:55.360Z,1.00
2018-12-12T06:43:23.722Z,1.20
2018-12-12T06:45:51.350Z,1.10
2018-12-12T06:48:18.942Z,1.30
2018-12-12T06:50:46.517Z,1.50
2018-12-12T06:53:14.491Z,1.40
2018-12-12T06:55:43.054Z,1.30
2018-12-12T06:58:10.640Z,1.40
2018-12-12T07:00:38.895Z,1.30
2018-12-12T07:03:06.486Z,1.40
2018-12-12T07:05:34.869Z,1.30
2018-12-12T07:08:03.255Z,1.30
2018-12-12T07:10:31.595Z,1.20
2018-12-12T07:13:01.376Z,1.20
2018-12-12T07:15:28.979Z,1.10
2018-12-12T07:17:56.555Z,1.00
2018-12-12T07:20:26.509Z,1.00
2018-12-12T07:22:54.084Z,0.90
2018-12-12T07:25:21.669Z,0.90
2018-12-12T07:27:49.548Z,0.80
2018-12-12T07:30:17.396Z,0.70
2018-12-12T07:32:44.976Z,0.70
2018-12-12T07:35:12.573Z,0.80
2018-12-12T07:37:40.917Z,0.80
2018-12-12T07:40:09.478Z,0.80
2018-12-12T07:42:37.057Z,0.80
2018-12-12T07:45:04.635Z,0.70
2018-12-12T07:47:32.287Z,0.70
2018-12-12T07:49:59.858Z,0.70
2018-12-12T07:52:28.124Z,0.70
2018-12-12T07:54:56.711Z,0.60
2018-12-12T07:57:24.286Z,0.60
2018-12-12T07:59:51.860Z,0.60
2018-12-12T08:02:20.254Z,0.80
2018-12-12T08:04:47.832Z,0.80
2018-12-12T08:07:15.424Z,0.90
2018-12-12T08:09:43.050Z,0.90
2018-12-12T08:12:10.627Z,0.90
2018-12-12T08:14:38.218Z,1.00
2018-12-12T08:17:05.846Z,1.20
2018-12-12T08:19:33.426Z,1.40
2018-12-12T08:22:01.017Z,1.50
2018-12-12T08:24:28.619Z,1.50
2018-12-12T08:26:56.190Z,1.50
2018-12-12T08:29:24.195Z,1.50
2018-12-12T08:31:51.791Z,1.50
2018-12-12T08:34:20.171Z,1.70
2018-12-12T08:36:48.256Z,1.70
2018-12-12T08:39:16.602Z,2.10
2018-12-12T08:41:44.178Z,2.10
2018-12-12T08:44:12.128Z,2.10
2018-12-12T08:46:39.710Z,2.10
2018-12-12T08:49:08.177Z,2.10
2018-12-12T08:51:35.710Z,2.00
2018-12-12T08:54:03.287Z,2.00
2018-12-12T08:56:30.866Z,2.00
2018-12-12T08:58:58.826Z,2.00
2018-12-12T09:01:26.409Z,1.90
2018-12-12T09:03:53.986Z,1.90
2018-12-12T09:06:21.608Z,2.10
2018-12-12T09:08:49.194Z,2.10
2018-12-12T09:11:17.541Z,2.10
2018-12-12T09:13:45.727Z,2.10
2018-12-12T09:16:14.041Z,2.10
2018-12-12T09:18:42.382Z,2.10
2018-12-12T09:21:10.286Z,2.10
2018-12-12T09:23:38.634Z,2.10
2018-12-12T09:26:06.235Z,2.10
2018-12-12T09:28:34.622Z,2.20
2018-12-12T09:31:02.208Z,2.20
2018-12-12T09:33:29.795Z,2.40
2018-12-12T09:35:57.781Z,2.60
2018-12-12T09:38:25.365Z,2.70
2018-12-12T09:40:53.710Z,2.80
2018-12-12T09:43:21.338Z,2.80
2018-12-12T09:45:48.941Z,2.80
2018-12-12T09:48:19.348Z,2.90
2018-12-12T09:50:44.154Z,3.20
2018-12-12T09:53:11.733Z,3.40
2018-12-12T09:55:40.455Z,3.40
2018-12-12T09:58:07.697Z,3.40
2018-12-12T10:00:36.637Z,3.30
2018-12-12T10:03:04.264Z,3.30
2018-12-12T10:05:31.844Z,3.40
2018-12-12T10:07:59.418Z,3.40
2018-12-12T10:10:27.019Z,3.40
2018-12-12T10:12:54.609Z,3.30
2018-12-12T10:15:23.052Z,3.30
2018-12-12T10:17:50.628Z,3.40
2018-12-12T10:20:18.971Z,3.50
2018-12-12T10:22:46.960Z,3.50
2018-12-12T10:25:14.543Z,3.50
2018-12-12T10:27:42.891Z,3.50
2018-12-12T10:30:10.549Z,3.50
2018-12-12T10:32:38.123Z,3.50
2018-12-12T10:35:05.725Z,3.50
2018-12-12T10:37:34.578Z,3.70
2018-12-12T10:40:02.211Z,3.60
2018-12-12T10:42:29.785Z,3.70
2018-12-12T10:44:57.401Z,3.70
2018-12-12T10:47:24.979Z,3.60
2018-12-12T10:49:52.607Z,3.60
2018-12-12T10:52:20.194Z,3.60
2018-12-12T10:54:47.774Z,3.50
2018-12-12T10:57:15.680Z,3.50
2018-12-12T10:59:43.281Z,3.50
2018-12-12T11:02:29.750Z,3.50
2018-12-12T11:04:57.697Z,3.50
2018-12-12T11:07:25.323Z,3.50
2018-12-12T11:09:53.735Z,3.40
2018-12-12T11:12:21.611Z,3.40
2018-12-12T11:14:49.305Z,3.50
2018-12-12T11:17:16.811Z,3.50
2018-12-12T11:19:44.395Z,3.50
2018-12-12T11:22:13.207Z,3.70
2018-12-12T11:24:40.777Z,3.70
2018-12-12T11:27:08.354Z,3.70
2018-12-12T11:29:35.989Z,3.90
2018-12-12T11:32:03.558Z,3.90
2018-12-12T11:34:31.137Z,4.00
2018-12-12T11:37:02.043Z,4.00
2018-12-12T11:39:29.619Z,4.00
2018-12-12T11:42:00.411Z,4.00
2018-12-12T11:44:29.443Z,4.00
2018-12-12T11:46:58.029Z,4.10
2018-12-12T11:49:28.284Z,4.10
2018-12-12T11:51:56.428Z,4.10
2018-12-12T11:54:24.014Z,4.10
2018-12-12T11:56:52.374Z,4.30
2018-12-12T11:59:20.021Z,4.30
2018-12-12T12:01:47.591Z,4.50
2018-12-12T12:04:15.163Z,4.50
2018-12-12T12:06:43.130Z,4.50
2018-12-12T12:09:10.714Z,4.60
2018-12-12T12:11:41.319Z,4.70
2018-12-12T12:14:09.201Z,4.70
2018-12-12T12:16:45.233Z,4.70
2018-12-12T12:19:12.814Z,4.70
2018-12-12T12:21:41.170Z,4.80
2018-12-12T12:24:08.750Z,4.80
2018-12-12T12:26:36.369Z,4.70
2018-12-12T12:29:05.629Z,4.70
2018-12-12T12:31:33.209Z,4.70
2018-12-12T12:34:03.386Z,4.70
2018-12-12T12:36:29.785Z,4.80
2018-12-12T12:38:57.356Z,4.80
2018-12-12T12:41:25.936Z,4.80
2018-12-12T12:43:53.532Z,4.80
2018-12-12T12:46:21.266Z,4.80
2018-12-12T12:48:50.597Z,4.80
2018-12-12T12:51:18.175Z,4.80
2018-12-12T12:53:45.751Z,4.90
2018-12-12T12:56:14.833Z,5.20
2018-12-12T12:58:42.413Z,5.20
2018-12-12T13:01:10.759Z,5.40
2018-12-12T13:03:38.772Z,5.40
2018-12-12T13:06:06.350Z,5.40
2018-12-12T13:08:33.942Z,5.40
2018-12-12T13:11:01.942Z,5.30
2018-12-12T13:13:29.659Z,5.20
2018-12-12T13:15:57.875Z,5.20
2018-12-12T13:18:25.494Z,5.20
2018-12-12T13:20:53.389Z,5.10
2018-12-12T13:23:20.964Z,5.10
2018-12-12T13:25:48.579Z,5.10
2018-12-12T13:28:16.150Z,5.10
2018-12-12T13:30:43.775Z,5.10
2018-12-12T13:33:12.109Z,5.20
2018-12-12T13:35:44.494Z,5.10
2018-12-12T13:38:13.496Z,5.20
2018-12-12T13:40:41.070Z,5.30
2018-12-12T13:43:08.662Z,5.30
2018-12-12T13:45:36.268Z,5.30
2018-12-12T13:48:03.840Z,5.50
2018-12-12T13:50:31.821Z,5.50
2018-12-12T13:53:01.847Z,5.70
2018-12-12T13:55:29.423Z,5.80
2018-12-12T13:57:58.317Z,6.10
2018-12-12T14:00:26.666Z,6.10
2018-12-12T14:02:54.242Z,6.10
2018-12-12T14:05:21.875Z,6.00
2018-12-12T14:07:49.737Z,6.00
2018-12-12T14:10:17.327Z,5.90
2018-12-12T14:12:45.119Z,5.80
2018-12-12T14:15:14.920Z,6.10
2018-12-12T14:17:42.495Z,6.10
2018-12-12T14:20:11.155Z,6.00
2018-12-12T14:22:38.726Z,6.00
2018-12-12T14:25:06.300Z,6.00
2018-12-12T14:27:38.929Z,5.90
2018-12-12T14:30:02.832Z,5.70
2018-12-12T14:32:30.788Z,5.70
2018-12-12T14:34:58.983Z,5.70
2018-12-12T14:37:27.451Z,5.80
2018-12-12T14:39:55.020Z,5.90
2018-12-12T14:42:22.993Z,5.80
2018-12-12T14:44:50.565Z,5.70
2018-12-12T14:47:18.141Z,5.70
2018-12-12T14:49:47.708Z,5.80
2018-12-12T14:52:15.329Z,5.70
2018-12-12T14:54:42.901Z,5.70
2018-12-12T14:57:10.504Z,5.60
2018-12-12T14:59:38.077Z,5.60
2018-12-12T15:02:06.042Z,5.50
2018-12-12T15:04:36.112Z,5.50
2018-12-12T15:07:01.965Z,5.70
2018-12-12T15:09:29.588Z,5.70
2018-12-12T15:11:57.166Z,5.60
2018-12-12T15:14:24.799Z,5.50
2018-12-12T15:16:52.362Z,5.40
2018-12-12T15:19:19.928Z,5.30
2018-12-12T15:21:47.503Z,5.20
2018-12-12T15:24:16.464Z,5.10
2018-12-12T15:26:44.041Z,5.10
2018-12-12T15:29:11.621Z,5.00
2018-12-12T15:31:39.700Z,5.00
2018-12-12T15:34:07.636Z,4.90
2018-12-12T15:36:35.209Z,4.90
2018-12-12T15:39:03.627Z,4.90
2018-12-12T15:41:32.359Z,4.90
2018-12-12T15:44:02.145Z,5.00
2018-12-12T15:46:30.929Z,5.00
2018-12-12T15:48:59.465Z,5.00
2018-12-12T15:51:30.180Z,5.00
2018-12-12T15:54:00.882Z,5.00
2018-12-12T15:56:30.368Z,5.00
2018-12-12T15:58:59.312Z,5.00
2018-12-12T16:01:31.087Z,5.00
2018-12-12T16:03:59.934Z,5.00
2018-12-12T16:06:30.738Z,5.00
2018-12-12T16:09:00.023Z,5.00
2018-12-12T16:11:31.492Z,5.00
2018-12-12T16:13:59.175Z,4.90
2018-12-12T16:16:30.018Z,5.10
2018-12-12T16:19:00.309Z,5.10
2018-12-12T16:21:29.859Z,5.10
2018-12-12T16:23:59.295Z,5.10
2018-12-12T16:26:28.013Z,5.10
2018-12-12T16:28:55.590Z,5.00
2018-12-12T16:31:23.168Z,5.00
2018-12-12T16:33:52.909Z,4.90
2018-12-12T16:36:22.306Z,4.90
2018-12-12T16:38:50.792Z,4.90
2018-12-12T16:41:19.609Z,4.80
2018-12-12T16:43:47.177Z,4.80
2018-12-12T16:46:19.462Z,4.70
2018-12-12T16:48:48.630Z,4.70
2018-12-12T16:51:17.020Z,4.70
2018-12-12T16:53:45.350Z,4.60
2018-12-12T16:56:15.716Z,4.60
2018-12-12T16:58:45.344Z,4.50
2018-12-12T17:01:16.443Z,4.50
2018-12-12T17:03:47.199Z,4.50
2018-12-12T17:06:17.216Z,4.50
2018-12-12T17:08:47.711Z,4.50
2018-12-12T17:11:18.489Z,4.60
2018-12-12T17:13:47.921Z,4.70
2018-12-12T17:16:19.323Z,4.70
2018-12-12T17:18:48.935Z,4.70
2018-12-12T17:21:16.512Z,4.70
2018-12-12T17:23:45.356Z,4.60
2018-12-12T17:26:13.597Z,4.50
2018-12-12T17:28:43.107Z,4.40
2018-12-12T17:31:11.759Z,4.40
2018-12-12T17:33:39.360Z,4.40
2018-12-12T17:36:09.150Z,4.40
2018-12-12T17:38:37.532Z,4.40
2018-12-12T17:41:06.275Z,4.40
2018-12-12T17:43:34.002Z,4.40
2018-12-12T17:46:02.353Z,4.30
2018-12-12T17:48:32.138Z,4.30
2018-12-12T17:50:59.239Z,4.20
2018-12-12T17:53:29.611Z,4.10
2018-12-12T17:55:58.188Z,4.10
2018-12-12T17:58:26.732Z,4.10
2018-12-12T18:00:54.304Z,4.00
2018-12-12T18:03:24.065Z,3.90
2018-12-12T18:05:53.999Z,3.90
2018-12-12T18:08:23.589Z,3.80
2018-12-12T18:10:51.458Z,3.80
2018-12-12T18:13:22.062Z,3.80
2018-12-12T18:15:49.723Z,3.70
2018-12-12T18:18:17.841Z,3.60
2018-12-12T18:20:46.742Z,3.60
2018-12-12T18:23:14.304Z,3.50
2018-12-12T18:25:42.280Z,3.50
2018-12-12T18:28:10.454Z,3.40
2018-12-12T18:30:38.701Z,3.40
2018-12-12T18:33:07.553Z,3.50
2018-12-12T18:35:37.586Z,3.60
2018-12-12T18:38:05.147Z,3.60
2018-12-12T18:40:33.842Z,3.50
2018-12-12T18:43:02.375Z,3.40
2018-12-12T18:45:30.307Z,3.40
2018-12-12T18:47:59.351Z,3.30
2018-12-12T18:50:27.485Z,3.40
2018-12-12T18:52:56.365Z,3.40
2018-12-12T18:55:35.311Z,3.30
2018-12-12T18:58:05.691Z,3.20
2018-12-12T19:00:36.242Z,3.10
2018-12-12T19:03:06.780Z,3.10
2018-12-12T19:05:36.687Z,3.10
2018-12-12T19:08:07.595Z,3.10
2018-12-12T19:10:40.481Z,3.00
2018-12-12T19:13:08.048Z,3.00
2018-12-12T19:15:37.940Z,2.90
2018-12-12T19:18:08.766Z,2.90
2018-12-12T19:20:41.299Z,2.80
2018-12-12T19:23:11.709Z,2.90
2018-12-12T19:25:41.355Z,2.90
2018-12-12T19:28:11.097Z,2.80
2018-12-12T19:30:40.788Z,2.80
2018-12-12T19:33:13.498Z,2.80
2018-12-12T19:35:41.073Z,2.70
2018-12-12T19:38:08.647Z,2.70
2018-12-12T19:40:40.083Z,2.60
2018-12-12T19:43:07.656Z,2.60
2018-12-12T19:45:38.210Z,2.60
2018-12-12T19:48:06.745Z,2.60
2018-12-12T19:50:36.732Z,2.60
2018-12-12T19:53:08.254Z,2.50
2018-12-12T19:55:38.584Z,2.50
2018-12-12T19:58:07.393Z,2.50
2018-12-12T20:00:38.125Z,2.50
2018-12-12T20:03:06.520Z,2.40
2018-12-12T20:05:41.095Z,2.30
2018-12-12T20:08:04.865Z,2.30
2018-12-12T20:10:34.012Z,2.40
2018-12-12T20:13:04.476Z,2.30
2018-12-12T20:15:44.222Z,2.40
2018-12-12T20:18:11.802Z,2.30
2018-12-12T20:20:40.085Z,2.40
2018-12-12T20:23:10.870Z,2.30
2018-12-12T20:25:40.108Z,2.10
2018-12-12T20:28:14.349Z,2.00
2018-12-12T20:30:43.112Z,1.90
2018-12-12T20:33:11.474Z,1.80
2018-12-12T20:35:39.092Z,1.80
2018-12-12T20:38:06.708Z,1.70
2018-12-12T20:40:34.289Z,1.70
2018-12-12T20:43:03.102Z,1.60
2018-12-12T20:45:31.410Z,1.60
2018-12-12T20:47:59.019Z,1.60
2018-12-12T20:50:26.600Z,1.60
2018-12-12T20:52:54.198Z,1.60
2018-12-12T20:55:21.780Z,1.60
2018-12-12T20:57:52.772Z,1.60
2018-12-12T21:00:20.642Z,1.60
2018-12-12T21:02:48.242Z,1.80
2018-12-12T21:05:16.229Z,1.80
2018-12-12T21:07:46.166Z,1.80
2018-12-12T21:10:14.255Z,1.90
2018-12-12T21:12:46.721Z,1.90
2018-12-12T21:15:16.636Z,2.00
2018-12-12T21:17:44.393Z,2.00
2018-12-12T21:20:12.763Z,2.10
2018-12-12T21:22:41.060Z,2.10
2018-12-12T21:25:12.200Z,2.30
2018-12-12T21:27:45.422Z,2.30
2018-12-12T21:30:17.267Z,2.30
2018-12-12T21:32:41.366Z,2.30
2018-12-12T21:35:08.964Z,2.30
2018-12-12T21:37:36.507Z,2.30
2018-12-12T21:40:05.047Z,2.20
2018-12-12T21:42:32.622Z,2.20
2018-12-12T21:45:00.203Z,2.10
2018-12-12T21:47:28.124Z,2.10
2018-12-12T21:49:55.759Z,2.00
2018-12-12T21:52:24.041Z,2.00
2018-12-12T21:54:52.028Z,2.00
2018-12-12T21:57:19.978Z,2.00
2018-12-12T21:59:47.680Z,2.00
2018-12-12T22:02:15.641Z,1.90
2018-12-12T22:04:43.209Z,2.00
2018-12-12T22:07:11.684Z,1.90
2018-12-12T22:09:39.997Z,1.90
2018-12-12T22:12:07.564Z,1.90
2018-12-12T22:14:35.156Z,1.90
2018-12-12T22:17:02.813Z,1.90
2018-12-12T22:19:30.425Z,1.80
2018-12-12T22:21:57.966Z,1.90
2018-12-12T22:26:59.532Z,1.80
2018-12-12T22:29:27.118Z,1.90
2018-12-12T22:31:55.509Z,1.80
2018-12-12T22:34:23.856Z,1.80
2018-12-12T22:36:51.474Z,1.80
2018-12-12T22:39:19.059Z,1.80
2018-12-12T22:41:46.640Z,1.70
2018-12-12T22:44:14.535Z,1.70
2018-12-12T22:46:42.136Z,1.70
2018-12-12T22:49:12.135Z,1.70
2018-12-12T22:51:40.541Z,1.60
2018-12-12T22:54:08.121Z,1.60
2018-12-12T22:56:35.709Z,1.60
2018-12-12T22:59:03.436Z,1.60
2018-12-12T23:01:31.012Z,1.50
2018-12-12T23:03:58.597Z,1.50
2018-12-12T23:06:26.299Z,1.50
2018-12-12T23:08:53.888Z,1.50
2018-12-12T23:11:21.471Z,1.50
2018-12-12T23:13:49.445Z,1.50
2018-12-12T23:16:17.026Z,1.50
2018-12-12T23:18:45.403Z,1.60
2018-12-12T23:21:13.821Z,1.60
2018-12-12T23:23:41.397Z,1.60
2018-12-12T23:26:08.984Z,1.60
2018-12-12T23:28:36.953Z,1.60
2018-12-12T23:31:04.547Z,1.60
2018-12-12T23:33:32.896Z,1.60
2018-12-12T23:36:00.518Z,1.50
2018-12-12T23:38:28.090Z,1.60
2018-12-12T23:40:55.665Z,1.50
2018-12-12T23:43:23.299Z,1.60
2018-12-12T23:45:50.875Z,1.60
2018-12-12T23:48:18.530Z,1.60
2018-12-12T23:50:46.110Z,1.60
2018-12-12T23:53:13.983Z,1.60
2018-12-12T23:55:41.870Z,1.60
2018-12-12T23:58:09.446Z,1.50
